Time;durP1;ratioP1;P1;durP2;ratioP2;P2;SDS_P1;SDS_P2;PMS_P1;PMS_P2;Temp;Humidity;BMP_temperature;BMP_pressure;BME280_temperature;BME280_humidity;BME280_pressure;Samples;Min_cycle;Max_cycle;Signal;HPM_P1;HPM_P2
2023/04/18 00:01:28;;;;;;;12.07;7.32;;;13.20;45.50;;;;;;4963109;28;20245;-88
2023/04/18 00:03:57;;;;;;;11.32;7.22;;;13.20;45.50;;;;;;4962863;28;20047;-88
2023/04/18 00:06:24;;;;;;;11.93;7.10;;;13.10;45.50;;;;;;4962983;28;20530;-89
2023/04/18 00:08:52;;;;;;;9.43;6.90;;;13.10;45.60;;;;;;4965628;28;20058;-90
2023/04/18 00:11:19;;;;;;;11.27;7.72;;;13.00;45.60;;;;;;4963295;28;20062;-90
2023/04/18 00:13:47;;;;;;;12.10;7.22;;;13.00;45.60;;;;;;4964748;28;20051;-86
2023/04/18 00:16:14;;;;;;;12.30;7.22;;;13.00;45.60;;;;;;4964560;28;20065;-89
2023/04/18 00:18:41;;;;;;;10.75;6.80;;;12.90;45.60;;;;;;4963459;28;20502;-91
2023/04/18 00:21:10;;;;;;;11.63;7.30;;;12.90;45.70;;;;;;4962922;28;20062;-87
2023/04/18 00:23:38;;;;;;;14.32;7.00;;;12.90;45.70;;;;;;4965370;28;20054;-90
2023/04/18 00:26:05;;;;;;;12.40;7.22;;;12.80;45.70;;;;;;4964093;28;20102;-84
2023/04/18 00:28:33;;;;;;;15.55;7.78;;;12.80;45.80;;;;;;4964093;28;20088;-87
2023/04/18 00:31:00;;;;;;;15.77;7.75;;;12.80;45.90;;;;;;4962702;28;20054;-89
2023/04/18 00:33:27;;;;;;;13.85;7.55;;;12.70;46.00;;;;;;4963060;28;20364;-87
2023/04/18 00:35:55;;;;;;;13.18;7.70;;;12.70;46.10;;;;;;4964196;28;20431;-89
2023/04/18 00:38:23;;;;;;;14.45;7.70;;;12.70;46.20;;;;;;4963429;28;20607;-90
2023/04/18 00:40:51;;;;;;;12.20;7.68;;;12.70;46.30;;;;;;4971136;28;20062;-90
2023/04/18 00:43:18;;;;;;;13.93;8.00;;;12.60;46.30;;;;;;4964006;28;20066;-90
2023/04/18 00:45:45;;;;;;;12.65;7.07;;;12.60;46.30;;;;;;4964172;28;20050;-90
2023/04/18 00:48:12;;;;;;;12.35;7.60;;;12.60;46.30;;;;;;4962783;28;20050;-88
2023/04/18 00:50:40;;;;;;;12.90;7.43;;;12.60;46.30;;;;;;4962428;28;20058;-85
2023/04/18 00:53:09;;;;;;;10.65;7.10;;;12.50;46.30;;;;;;4963924;28;20411;-85
2023/04/18 00:55:38;;;;;;;13.00;7.30;;;12.50;46.30;;;;;;4963398;28;20065;-90
2023/04/18 00:58:06;;;;;;;12.18;7.43;;;12.40;46.30;;;;;;4963963;28;20054;-89
2023/04/18 01:00:33;;;;;;;10.05;6.88;;;12.40;46.30;;;;;;4962767;28;20058;-83
2023/04/18 01:03:00;;;;;;;12.27;6.75;;;12.40;46.40;;;;;;4974878;23;20336;-48
2023/04/18 01:05:27;;;;;;;12.10;7.07;;;12.30;46.40;;;;;;4997916;28;20072;-48
2023/04/18 01:07:59;;;;;;;12.25;7.13;;;12.30;46.40;;;;;;4997891;28;20054;-47
2023/04/18 01:10:27;;;;;;;10.20;6.47;;;12.20;46.50;;;;;;4999148;28;20489;-48
2023/04/18 01:15:53;;;;;;;13.43;7.95;;;12.20;46.50;;;;;;5062868;27;20730;-50
2023/04/18 01:18:21;;;;;;;11.85;7.60;;;12.10;46.60;;;;;;5055476;28;20400;-50
2023/04/18 01:20:53;;;;;;;12.65;6.57;;;12.10;46.70;;;;;;5053245;28;20079;-49
2023/04/18 01:23:20;;;;;;;11.80;7.93;;;12.00;46.70;;;;;;5057536;28;20052;-50
2023/04/18 01:25:49;;;;;;;12.38;7.35;;;12.00;46.80;;;;;;5057528;28;20059;-53
2023/04/18 01:28:19;;;;;;;14.23;7.57;;;12.00;46.90;;;;;;5054894;28;20048;-52
2023/04/18 01:30:46;;;;;;;10.40;7.07;;;11.90;46.90;;;;;;5056968;28;20064;-49
2023/04/18 01:33:13;;;;;;;13.48;8.00;;;11.90;46.90;;;;;;5055440;28;20056;-50
2023/04/18 01:35:40;;;;;;;14.30;7.50;;;11.90;47.00;;;;;;5055120;28;20053;-49
2023/04/18 01:38:07;;;;;;;13.60;7.75;;;11.90;47.00;;;;;;5055492;28;20048;-54
2023/04/18 01:40:35;;;;;;;11.43;7.65;;;11.80;47.10;;;;;;5054177;28;20056;-49
2023/04/18 01:43:03;;;;;;;11.93;7.07;;;11.80;47.10;;;;;;5056720;28;20053;-48
2023/04/18 01:45:31;;;;;;;11.07;7.55;;;11.80;47.20;;;;;;5057301;28;20053;-51
2023/04/18 01:47:58;;;;;;;13.50;7.43;;;11.70;47.30;;;;;;5057325;28;20066;-50
2023/04/18 01:50:25;;;;;;;18.50;8.75;;;11.70;47.40;;;;;;5052604;28;20056;-50
2023/04/18 01:52:52;;;;;;;11.20;7.70;;;11.70;47.50;;;;;;5056385;28;20063;-51
2023/04/18 01:55:20;;;;;;;15.48;8.57;;;11.70;47.50;;;;;;5056529;28;20068;-51
2023/04/18 01:57:49;;;;;;;12.73;7.07;;;11.60;47.60;;;;;;5056499;28;20072;-48
2023/04/18 02:00:19;;;;;;;13.15;7.45;;;11.60;47.60;;;;;;5054122;28;20057;-49
2023/04/18 02:02:46;;;;;;;14.07;8.05;;;11.60;47.60;;;;;;5055491;28;20059;-49
2023/04/18 02:05:13;;;;;;;12.02;7.90;;;11.60;47.70;;;;;;5054880;28;20048;-51
2023/04/18 02:07:41;;;;;;;11.85;6.72;;;11.50;47.60;;;;;;5055596;28;20060;-48
2023/04/18 02:10:10;;;;;;;12.93;7.72;;;11.50;47.60;;;;;;5054277;28;20049;-51
2023/04/18 02:12:37;;;;;;;15.25;8.57;;;11.50;47.70;;;;;;5055460;28;20055;-49
2023/04/18 02:15:06;;;;;;;14.88;7.75;;;11.50;47.70;;;;;;5054302;28;20140;-53
2023/04/18 02:17:35;;;;;;;12.35;7.30;;;11.50;47.70;;;;;;5055021;28;20053;-50
2023/04/18 02:20:02;;;;;;;11.93;7.40;;;11.40;47.70;;;;;;5052013;28;20063;-49
2023/04/18 02:22:30;;;;;;;10.63;7.28;;;11.40;47.70;;;;;;5054838;28;20048;-49
2023/04/18 02:24:57;;;;;;;14.30;7.03;;;11.40;47.80;;;;;;5052658;28;20048;-48
2023/04/18 02:27:24;;;;;;;11.57;7.45;;;11.40;47.80;;;;;;5042003;28;20048;-48
2023/04/18 02:29:52;;;;;;;13.32;8.18;;;11.30;47.90;;;;;;5039390;28;20049;-49
2023/04/18 02:32:19;;;;;;;12.43;6.95;;;11.30;48.00;;;;;;5042055;28;20061;-51
2023/04/18 02:34:48;;;;;;;14.13;8.45;;;11.30;48.00;;;;;;5038740;28;20048;-51
2023/04/18 02:37:15;;;;;;;13.02;7.45;;;11.30;48.10;;;;;;5042068;28;20404;-47
2023/04/18 02:39:42;;;;;;;13.95;8.63;;;11.30;48.10;;;;;;5040765;28;20053;-47
2023/04/18 02:42:09;;;;;;;17.17;8.50;;;11.20;48.10;;;;;;5039516;28;20064;-50
2023/04/18 02:44:36;;;;;;;12.57;7.82;;;11.20;48.20;;;;;;5042326;28;20445;-51
2023/04/18 02:47:04;;;;;;;15.05;8.38;;;11.20;48.20;;;;;;5040255;28;20053;-50
2023/04/18 02:49:32;;;;;;;10.60;7.32;;;11.10;48.20;;;;;;5041257;28;20087;-49
2023/04/18 02:52:02;;;;;;;12.90;7.30;;;11.10;48.30;;;;;;5041987;28;20053;-51
2023/04/18 02:54:30;;;;;;;13.95;8.45;;;11.10;48.30;;;;;;5038450;28;20053;-51
2023/04/18 02:56:57;;;;;;;11.85;7.57;;;11.00;48.40;;;;;;5041766;28;20060;-52
2023/04/18 02:59:24;;;;;;;14.48;8.00;;;11.00;48.40;;;;;;5039207;28;20049;-49
2023/04/18 03:01:51;;;;;;;12.70;7.75;;;11.00;48.50;;;;;;5041869;28;20056;-52
2023/04/18 03:04:18;;;;;;;13.93;8.20;;;10.90;48.40;;;;;;5037665;28;20075;-49
2023/04/18 03:06:46;;;;;;;13.52;7.97;;;10.90;48.50;;;;;;5038514;28;20072;-48
2023/04/18 03:09:15;;;;;;;18.75;8.65;;;10.90;48.50;;;;;;5040393;28;20475;-49
2023/04/18 03:11:42;;;;;;;12.50;8.13;;;10.90;48.60;;;;;;5041779;28;20060;-53
2023/04/18 03:14:10;;;;;;;11.13;7.20;;;10.90;48.60;;;;;;5040385;28;20053;-50
2023/04/18 03:16:37;;;;;;;13.45;8.15;;;10.80;48.60;;;;;;5039734;28;20053;-51
2023/04/18 03:19:06;;;;;;;13.40;8.23;;;10.80;48.60;;;;;;5039747;28;20500;-52
2023/04/18 03:21:33;;;;;;;14.43;8.10;;;10.70;48.60;;;;;;5040222;28;20060;-50
2023/04/18 03:24:03;;;;;;;15.10;8.05;;;10.70;48.60;;;;;;5037790;28;20049;-53
2023/04/18 03:26:32;;;;;;;12.25;7.55;;;10.70;48.70;;;;;;5038679;28;20060;-51
2023/04/18 03:28:59;;;;;;;13.20;7.88;;;10.70;48.80;;;;;;5039636;28;20091;-49
2023/04/18 03:31:26;;;;;;;12.20;8.20;;;10.60;48.80;;;;;;5039272;28;21463;-52
2023/04/18 03:33:53;;;;;;;12.80;7.30;;;10.60;48.80;;;;;;5038488;28;20452;-50
2023/04/18 03:36:24;;;;;;;13.90;7.80;;;10.60;48.80;;;;;;5039052;28;20052;-50
2023/04/18 03:38:51;;;;;;;12.98;8.00;;;10.60;48.90;;;;;;5038645;28;20057;-51
2023/04/18 03:41:18;;;;;;;12.85;7.03;;;10.50;48.90;;;;;;5041340;28;20060;-49
2023/04/18 03:43:47;;;;;;;11.60;7.28;;;10.50;48.90;;;;;;5037768;28;20057;-49
2023/04/18 03:46:14;;;;;;;13.18;8.38;;;10.50;48.90;;;;;;5040696;28;20049;-50
2023/04/18 03:48:44;;;;;;;14.77;7.93;;;10.50;48.90;;;;;;5040680;28;20523;-49
2023/04/18 03:51:11;;;;;;;38.58;19.27;;;10.50;48.90;;;;;;5039783;28;20056;-50
2023/04/18 03:53:38;;;;;;;21.35;11.40;;;10.50;49.00;;;;;;5038373;28;20061;-52
2023/04/18 03:56:06;;;;;;;16.00;9.15;;;10.50;49.00;;;;;;5040022;28;20064;-49
2023/04/18 03:58:33;;;;;;;12.82;7.82;;;10.50;49.00;;;;;;5040572;28;20049;-52
2023/04/18 04:01:02;;;;;;;13.93;8.30;;;10.40;48.90;;;;;;5041358;28;20059;-50
2023/04/18 04:03:29;;;;;;;13.60;8.35;;;10.40;49.00;;;;;;5040161;28;20515;-49
2023/04/18 04:05:57;;;;;;;17.05;8.88;;;10.40;49.10;;;;;;5040031;28;20048;-51
2023/04/18 04:08:24;;;;;;;12.45;7.60;;;10.30;49.10;;;;;;5037118;28;20144;-53
2023/04/18 04:10:51;;;;;;;15.23;8.13;;;10.30;49.10;;;;;;5037979;28;20061;-50
2023/04/18 04:13:19;;;;;;;11.88;7.88;;;10.30;49.20;;;;;;5037732;28;20412;-52
2023/04/18 04:15:47;;;;;;;15.73;8.07;;;10.30;49.20;;;;;;5028995;28;20049;-49
2023/04/18 04:18:16;;;;;;;15.02;8.75;;;10.30;49.20;;;;;;5018638;28;20049;-50
2023/04/18 04:20:46;;;;;;;12.77;7.93;;;10.30;49.30;;;;;;5017595;28;20503;-53
2023/04/18 04:23:14;;;;;;;19.50;9.50;;;10.20;49.30;;;;;;5020153;28;20511;-49
2023/04/18 04:25:41;;;;;;;14.82;8.48;;;10.20;49.30;;;;;;5019127;28;20052;-50
2023/04/18 04:28:08;;;;;;;14.48;8.20;;;10.20;49.30;;;;;;5019972;28;20159;-49
2023/04/18 04:30:37;;;;;;;18.00;8.38;;;10.20;49.40;;;;;;5019271;28;20053;-49
2023/04/18 04:33:05;;;;;;;56.75;25.63;;;10.20;49.40;;;;;;5014198;28;20053;-50
2023/04/18 04:35:35;;;;;;;50.63;24.17;;;10.20;49.50;;;;;;5015714;28;20076;-52
2023/04/18 04:38:02;;;;;;;24.23;13.18;;;10.20;49.60;;;;;;5016479;28;20053;-53
2023/04/18 04:40:29;;;;;;;17.50;9.50;;;10.10;49.60;;;;;;5018940;28;20053;-53
2023/04/18 04:42:57;;;;;;;17.85;10.02;;;10.10;49.60;;;;;;5017627;28;20393;-50
2023/04/18 04:45:24;;;;;;;14.27;9.25;;;10.10;49.60;;;;;;5021358;28;20054;-48
2023/04/18 04:47:52;;;;;;;12.85;8.70;;;10.10;49.70;;;;;;5018257;28;20064;-51
2023/04/18 04:50:19;;;;;;;16.00;8.82;;;10.10;49.70;;;;;;5020173;28;20056;-49
2023/04/18 04:52:50;;;;;;;16.25;9.18;;;10.10;49.80;;;;;;5017192;28;20057;-48
2023/04/18 04:55:18;;;;;;;16.05;9.07;;;10.10;49.90;;;;;;5017277;28;20409;-48
2023/04/18 04:57:46;;;;;;;18.73;10.60;;;10.10;49.90;;;;;;5019614;28;20057;-50
2023/04/18 05:00:19;;;;;;;16.10;9.48;;;10.10;50.00;;;;;;5018414;28;20053;-53
2023/04/18 05:02:49;;;;;;;13.95;8.68;;;10.10;50.00;;;;;;5019208;28;20053;-51
2023/04/18 05:05:17;;;;;;;19.35;10.48;;;10.10;50.00;;;;;;5018050;28;20068;-51
2023/04/18 05:07:44;;;;;;;15.60;10.02;;;10.10;50.00;;;;;;5019396;28;20065;-50
2023/04/18 05:10:12;;;;;;;15.30;8.93;;;10.10;50.10;;;;;;5017517;28;20053;-49
2023/04/18 05:12:40;;;;;;;18.58;10.80;;;10.10;50.20;;;;;;5017727;28;20163;-48
2023/04/18 05:15:07;;;;;;;16.50;9.98;;;10.10;50.30;;;;;;5013608;28;20053;-48
2023/04/18 05:17:35;;;;;;;15.27;9.40;;;10.10;50.30;;;;;;5015470;28;20437;-48
2023/04/18 05:20:03;;;;;;;15.35;10.13;;;10.10;50.40;;;;;;5017935;28;20057;-50
2023/04/18 05:22:30;;;;;;;13.38;9.27;;;10.10;50.40;;;;;;5013759;28;20049;-50
2023/04/18 05:24:57;;;;;;;14.90;10.05;;;10.10;50.40;;;;;;5020375;28;20049;-47
2023/04/18 05:27:26;;;;;;;18.42;9.60;;;10.10;50.40;;;;;;5018894;28;20393;-46
2023/04/18 05:29:53;;;;;;;18.60;10.43;;;10.10;50.60;;;;;;5018824;28;20110;-48
2023/04/18 05:32:21;;;;;;;18.17;10.75;;;10.10;50.50;;;;;;5018604;28;20046;-46
2023/04/18 05:34:48;;;;;;;16.42;10.63;;;10.10;50.70;;;;;;5013634;28;20060;-53
2023/04/18 05:37:15;;;;;;;15.75;10.60;;;10.20;50.70;;;;;;5017998;28;20061;-49
2023/04/18 05:39:43;;;;;;;15.82;10.02;;;10.20;50.80;;;;;;5019070;28;20061;-49
2023/04/18 05:42:10;;;;;;;19.70;10.52;;;10.20;50.80;;;;;;5019879;28;20049;-47
2023/04/18 05:44:39;;;;;;;16.48;10.07;;;10.20;50.90;;;;;;5014246;28;20053;-48
2023/04/18 05:47:06;;;;;;;16.85;10.45;;;10.20;51.00;;;;;;5015659;28;20054;-52
2023/04/18 05:49:33;;;;;;;16.85;10.25;;;10.20;50.90;;;;;;5015844;28;20064;-47
2023/04/18 05:52:02;;;;;;;18.63;11.25;;;10.30;51.00;;;;;;5017080;28;20064;-47
2023/04/18 05:54:29;;;;;;;20.98;10.93;;;10.30;51.10;;;;;;5018585;28;20377;-51
2023/04/18 05:56:57;;;;;;;16.52;9.98;;;10.30;51.10;;;;;;5019030;28;20485;-51
2023/04/18 05:59:25;;;;;;;17.73;10.98;;;10.30;51.10;;;;;;5018670;28;20058;-49
2023/04/18 06:01:54;;;;;;;17.85;11.40;;;10.40;51.10;;;;;;5020235;28;20069;-50
2023/04/18 06:04:21;;;;;;;18.52;10.80;;;10.40;51.10;;;;;;5023181;28;20057;-49
2023/04/18 06:06:49;;;;;;;20.17;11.63;;;10.50;51.10;;;;;;5024048;28;20179;-47
2023/04/18 06:09:16;;;;;;;17.77;11.18;;;10.50;51.10;;;;;;5024518;28;20050;-47
2023/04/18 06:11:43;;;;;;;19.83;11.20;;;10.50;51.10;;;;;;5024971;28;20069;-47
2023/04/18 06:14:10;;;;;;;16.42;11.15;;;10.50;51.10;;;;;;5021815;28;20062;-48
2023/04/18 06:16:38;;;;;;;19.65;10.73;;;10.50;51.20;;;;;;5025089;28;20451;-50
2023/04/18 06:19:06;;;;;;;18.80;11.52;;;10.60;51.20;;;;;;5023943;28;20416;-48
2023/04/18 06:21:34;;;;;;;18.23;11.80;;;10.60;51.20;;;;;;5020856;28;20057;-47
2023/04/18 06:24:01;;;;;;;18.10;11.52;;;10.60;51.20;;;;;;5022557;28;20068;-50
2023/04/18 06:26:29;;;;;;;20.95;11.80;;;10.70;51.20;;;;;;5024213;28;20686;-48
2023/04/18 06:28:56;;;;;;;17.55;11.18;;;10.70;51.20;;;;;;5022742;28;20048;-48
2023/04/18 06:31:23;;;;;;;18.98;12.27;;;10.70;51.20;;;;;;5024535;28;20068;-49
2023/04/18 06:33:51;;;;;;;18.35;11.43;;;10.70;51.20;;;;;;5022656;28;20064;-49
2023/04/18 06:36:20;;;;;;;16.45;10.90;;;10.80;51.20;;;;;;5022728;28;20057;-48
2023/04/18 06:38:50;;;;;;;18.63;11.40;;;10.80;51.10;;;;;;5023847;28;20064;-48
2023/04/18 06:41:17;;;;;;;17.70;11.27;;;10.90;51.20;;;;;;5022054;28;20050;-49
2023/04/18 06:43:44;;;;;;;21.05;12.10;;;10.90;51.10;;;;;;5024143;28;20049;-49
2023/04/18 06:46:11;;;;;;;18.48;11.00;;;10.90;51.10;;;;;;5022620;28;20053;-47
2023/04/18 06:48:39;;;;;;;19.48;12.00;;;10.90;51.10;;;;;;5021712;28;20064;-50
2023/04/18 06:51:06;;;;;;;20.10;11.88;;;10.90;51.20;;;;;;5021893;28;20076;-49
2023/04/18 06:53:35;;;;;;;18.33;11.50;;;10.90;51.20;;;;;;5023435;28;20053;-47
2023/04/18 06:56:02;;;;;;;19.00;11.75;;;11.00;51.30;;;;;;5023436;28;20058;-51
2023/04/18 06:58:29;;;;;;;16.92;10.75;;;11.00;51.30;;;;;;5024335;28;20064;-49
2023/04/18 07:00:57;;;;;;;15.32;11.02;;;11.00;51.30;;;;;;5023667;28;20061;-48
2023/04/18 07:03:24;;;;;;;15.27;9.95;;;11.10;51.40;;;;;;5021317;28;20065;-48
2023/04/18 07:05:52;;;;;;;19.00;11.57;;;11.10;51.50;;;;;;5021669;28;20061;-46
2023/04/18 07:08:19;;;;;;;16.15;9.45;;;11.20;51.50;;;;;;5023956;28;20089;-47
2023/04/18 07:10:48;;;;;;;16.63;10.65;;;11.20;51.50;;;;;;5023695;28;20065;-47
2023/04/18 07:13:15;;;;;;;14.50;10.00;;;11.20;51.50;;;;;;5019683;28;20046;-51
2023/04/18 07:15:42;;;;;;;17.25;10.50;;;11.30;51.50;;;;;;5022750;28;20420;-50
2023/04/18 07:18:10;;;;;;;15.82;10.18;;;11.40;51.40;;;;;;5021407;28;20513;-48
2023/04/18 07:20:37;;;;;;;16.52;10.10;;;11.40;51.40;;;;;;5021290;28;20050;-50
2023/04/18 07:23:05;;;;;;;16.48;9.70;;;11.50;51.40;;;;;;5023548;28;20531;-49
2023/04/18 07:25:32;;;;;;;19.33;10.63;;;11.60;51.40;;;;;;5023960;28;20471;-48
2023/04/18 07:28:00;;;;;;;17.25;9.32;;;11.60;51.20;;;;;;5022404;28;20416;-49
2023/04/18 07:30:28;;;;;;;13.45;9.63;;;11.70;51.20;;;;;;5022058;28;20418;-52
2023/04/18 07:32:56;;;;;;;16.92;9.82;;;11.70;51.10;;;;;;5019333;28;20461;-51
2023/04/18 07:35:24;;;;;;;14.50;9.85;;;11.80;51.10;;;;;;5022078;28;20592;-48
2023/04/18 07:37:53;;;;;;;14.27;9.32;;;11.80;51.00;;;;;;5021542;28;20053;-49
2023/04/18 07:40:20;;;;;;;15.35;9.38;;;11.90;51.00;;;;;;5022084;28;20050;-48
2023/04/18 07:42:48;;;;;;;13.00;9.35;;;11.90;51.00;;;;;;5023425;28;20057;-49
2023/04/18 07:45:16;;;;;;;12.60;8.55;;;12.00;51.00;;;;;;5021166;28;20060;-49
2023/04/18 07:47:44;;;;;;;13.90;9.60;;;12.00;50.90;;;;;;5022748;28;20069;-54
2023/04/18 07:50:11;;;;;;;16.02;9.90;;;12.10;50.80;;;;;;5021514;28;20068;-48
2023/04/18 07:52:39;;;;;;;16.25;9.38;;;12.10;50.70;;;;;;5019648;28;20505;-50
2023/04/18 07:55:07;;;;;;;16.38;9.45;;;12.10;50.60;;;;;;5023135;28;20053;-51
2023/04/18 07:57:34;;;;;;;15.48;9.15;;;12.20;50.60;;;;;;5022434;28;20057;-50
2023/04/18 08:00:03;;;;;;;13.73;8.55;;;12.20;50.50;;;;;;5019819;28;20065;-49
2023/04/18 08:02:32;;;;;;;15.85;8.82;;;12.20;50.40;;;;;;5022436;28;20069;-50
2023/04/18 08:04:59;;;;;;;12.77;8.55;;;12.30;50.40;;;;;;5018448;28;20061;-49
2023/04/18 08:07:26;;;;;;;12.85;8.38;;;12.30;50.50;;;;;;5021624;28;20054;-51
2023/04/18 08:09:54;;;;;;;10.73;7.93;;;12.30;50.60;;;;;;5022564;28;20057;-51
2023/04/18 08:12:21;;;;;;;14.48;8.27;;;12.40;50.60;;;;;;5022965;28;20068;-48
2023/04/18 08:14:50;;;;;;;13.75;8.57;;;12.50;50.60;;;;;;5019985;28;20056;-55
2023/04/18 08:17:17;;;;;;;13.05;8.52;;;12.50;50.50;;;;;;5022822;28;20052;-49
2023/04/18 08:19:46;;;;;;;15.70;7.57;;;12.50;50.30;;;;;;5021741;28;20061;-46
2023/04/18 08:22:13;;;;;;;11.45;7.65;;;12.60;50.30;;;;;;5020106;28;20058;-52
2023/04/18 08:24:41;;;;;;;14.80;8.30;;;12.60;50.30;;;;;;5020519;28;20061;-49
2023/04/18 08:27:08;;;;;;;11.50;7.63;;;12.70;50.30;;;;;;5020290;28;20056;-47
2023/04/18 08:29:35;;;;;;;14.48;8.07;;;12.70;50.30;;;;;;5019903;28;20068;-49
2023/04/18 08:32:03;;;;;;;11.25;7.70;;;12.70;50.20;;;;;;5021382;28;20060;-50
2023/04/18 08:34:33;;;;;;;14.85;7.90;;;12.80;50.10;;;;;;5021434;28;20049;-51
2023/04/18 08:37:02;;;;;;;13.98;8.88;;;12.80;50.00;;;;;;5019519;28;20053;-48
2023/04/18 08:39:29;;;;;;;11.20;7.10;;;12.90;50.00;;;;;;5022128;28;20505;-50
2023/04/18 08:42:02;;;;;;;12.30;8.05;;;12.90;50.00;;;;;;5022162;28;20053;-48
2023/04/18 08:44:29;;;;;;;13.68;8.15;;;12.90;49.80;;;;;;5021870;28;20049;-47
2023/04/18 08:47:00;;;;;;;12.05;8.05;;;13.00;49.80;;;;;;5019711;28;20080;-53
2023/04/18 08:49:27;;;;;;;15.15;7.50;;;13.00;49.90;;;;;;5020762;28;20053;-53
2023/04/18 08:51:56;;;;;;;13.73;7.78;;;13.00;49.80;;;;;;5020380;28;20058;-47
2023/04/18 08:54:25;;;;;;;13.18;7.68;;;13.10;49.80;;;;;;5021721;28;20056;-49
2023/04/18 08:57:04;;;;;;;11.20;7.22;;;13.10;49.90;;;;;;5021546;28;20057;-52
2023/04/18 08:59:34;;;;;;;12.70;8.32;;;13.10;49.90;;;;;;5021613;28;20046;-51
2023/04/18 09:02:02;;;;;;;11.27;7.57;;;13.20;49.90;;;;;;5018136;28;20049;-51
2023/04/18 09:04:35;;;;;;;12.80;7.80;;;13.20;49.80;;;;;;5019080;28;20068;-47
2023/04/18 09:07:03;;;;;;;9.40;6.97;;;13.30;49.70;;;;;;5018503;28;20045;-50
2023/04/18 09:09:42;;;;;;;13.05;7.65;;;13.30;49.50;;;;;;5018714;28;20056;-49
2023/04/18 09:12:13;;;;;;;12.05;7.45;;;13.30;49.50;;;;;;5021359;28;20053;-50
2023/04/18 09:14:44;;;;;;;11.27;7.53;;;13.40;49.40;;;;;;5021217;28;20061;-55
2023/04/18 09:17:13;;;;;;;8.95;6.70;;;13.40;49.40;;;;;;5019460;28;20402;-51
2023/04/18 09:19:49;;;;;;;11.23;6.38;;;13.40;49.40;;;;;;5021240;28;20053;-52
2023/04/18 09:22:17;;;;;;;10.73;7.25;;;13.50;49.30;;;;;;5017121;28;20061;-46
2023/04/18 09:24:56;;;;;;;11.15;6.82;;;13.50;49.30;;;;;;5019446;28;20412;-51
2023/04/18 09:27:24;;;;;;;11.85;6.97;;;13.50;49.30;;;;;;5021453;28;20065;-52
2023/04/18 09:29:54;;;;;;;12.18;7.88;;;13.60;49.30;;;;;;5019609;28;20064;-49
2023/04/18 09:32:23;;;;;;;11.50;6.80;;;13.60;49.50;;;;;;5020943;28;20494;-52
2023/04/18 09:34:53;;;;;;;10.32;7.35;;;13.60;49.50;;;;;;5019291;28;20049;-50
2023/04/18 09:37:21;;;;;;;11.73;7.38;;;13.70;49.70;;;;;;5023074;28;20053;-48
2023/04/18 09:39:49;;;;;;;10.02;6.47;;;13.80;49.70;;;;;;5025611;28;20049;-50
2023/04/18 09:42:18;;;;;;;10.18;6.63;;;13.80;49.60;;;;;;5025234;28;20516;-48
2023/04/18 09:45:00;;;;;;;9.55;6.95;;;13.90;49.30;;;;;;5025125;28;20594;-48
2023/04/18 09:47:28;;;;;;;9.20;6.35;;;14.00;49.20;;;;;;5022279;28;20078;-51
2023/04/18 09:49:55;;;;;;;10.23;6.95;;;14.00;49.40;;;;;;5024944;28;20061;-49
2023/04/18 09:52:24;;;;;;;9.77;6.35;;;14.10;49.40;;;;;;5023345;28;20061;-51
2023/04/18 09:54:57;;;;;;;8.52;6.45;;;14.20;49.30;;;;;;5024986;28;20501;-50
2023/04/18 09:57:29;;;;;;;10.90;6.63;;;14.20;49.10;;;;;;5023429;28;20064;-52
2023/04/18 10:00:03;;;;;;;9.88;6.68;;;14.30;48.90;;;;;;5024507;28;20053;-49
2023/04/18 10:02:38;;;;;;;14.00;7.80;;;14.40;48.80;;;;;;5025049;28;20429;-50
2023/04/18 10:05:08;;;;;;;11.20;7.20;;;14.40;48.70;;;;;;5023691;28;20080;-50
2023/04/18 10:07:36;;;;;;;11.45;6.32;;;14.50;48.70;;;;;;5023449;28;20433;-51
2023/04/18 10:10:03;;;;;;;9.40;7.03;;;14.50;48.60;;;;;;5024850;28;20536;-52
2023/04/18 10:12:32;;;;;;;9.75;6.45;;;14.50;48.50;;;;;;5024064;28;20055;-52
2023/04/18 10:15:00;;;;;;;9.55;6.40;;;14.60;48.50;;;;;;5023629;28;20057;-49
2023/04/18 10:17:27;;;;;;;12.05;7.63;;;14.60;48.50;;;;;;5023429;28;20501;-50
2023/04/18 10:20:06;;;;;;;11.23;6.88;;;14.60;48.40;;;;;;5024111;28;20379;-50
2023/04/18 10:22:35;;;;;;;10.50;6.75;;;14.60;48.30;;;;;;5023905;28;20053;-50
2023/04/18 10:25:02;;;;;;;10.02;6.93;;;14.70;48.40;;;;;;5024932;28;20052;-49
2023/04/18 10:27:57;;;;;;;9.57;6.47;;;14.70;48.40;;;;;;5023154;28;20057;-54
2023/04/18 10:31:02;;;;;;;12.25;6.78;;;14.70;48.40;;;;;;5023482;28;20045;-53
2023/04/18 10:33:33;;;;;;;11.15;7.65;;;14.80;48.30;;;;;;4959519;28;20475;-52
2023/04/18 10:36:17;;;;;;;10.02;6.80;;;14.90;48.30;;;;;;4959804;28;20062;-55
2023/04/18 10:38:47;;;;;;;;;;;14.90;48.30;;;;;;5000177;28;20049;-52
2023/04/18 10:41:26;;;;;;;9.43;6.30;;;14.90;48.40;;;;;;5024780;28;19932;-51
2023/04/18 10:44:18;;;;;;;12.48;7.30;;;14.90;48.10;;;;;;5024313;28;20049;-53
2023/04/18 10:47:31;;;;;;;11.15;6.90;;;14.90;48.20;;;;;;5020972;28;20408;-53
2023/04/18 10:50:02;;;;;;;12.02;7.00;;;14.90;48.30;;;;;;5023574;28;20064;-53
2023/04/18 10:52:30;;;;;;;10.95;6.93;;;14.90;48.30;;;;;;5021905;28;20061;-49
2023/04/18 10:55:19;;;;;;;9.93;6.53;;;15.00;48.30;;;;;;5024320;28;20145;-48
2023/04/18 10:57:47;;;;;;;9.73;6.70;;;14.90;48.30;;;;;;5022099;28;20052;-52
2023/04/18 11:00:17;;;;;;;13.10;6.78;;;15.00;48.50;;;;;;5023326;28;20049;-51
2023/04/18 11:02:56;;;;;;;11.55;7.40;;;15.00;48.50;;;;;;5023884;28;20083;-50
2023/04/18 11:05:26;;;;;;;10.02;6.60;;;15.00;48.60;;;;;;5022760;28;20053;-52
2023/04/18 11:07:54;;;;;;;10.38;6.25;;;15.00;48.50;;;;;;5022340;28;20424;-54
2023/04/18 11:10:23;;;;;;;9.35;6.65;;;15.10;48.60;;;;;;5023491;28;20045;-55
2023/04/18 11:12:51;;;;;;;10.45;7.63;;;15.10;48.50;;;;;;5023534;28;20071;-53
2023/04/18 11:15:22;;;;;;;10.60;7.15;;;15.10;48.50;;;;;;5022111;28;20133;-53
2023/04/18 11:17:57;;;;;;;9.13;6.38;;;15.20;48.60;;;;;;5022901;28;20524;-49
2023/04/18 11:20:25;;;;;;;9.13;6.25;;;15.20;48.60;;;;;;5022572;28;20489;-55
2023/04/18 11:22:54;;;;;;;11.27;6.35;;;15.20;48.60;;;;;;5022560;28;20049;-51
2023/04/18 11:25:25;;;;;;;9.30;6.18;;;15.30;48.70;;;;;;5023104;28;20081;-55
2023/04/18 11:27:53;;;;;;;10.63;5.55;;;15.20;48.70;;;;;;5023700;28;20054;-50
2023/04/18 11:30:22;;;;;;;8.95;6.13;;;15.30;48.80;;;;;;5021650;28;20049;-50
2023/04/18 11:32:50;;;;;;;10.80;6.35;;;15.30;48.80;;;;;;5021578;28;20084;-56
2023/04/18 11:35:17;;;;;;;9.70;6.32;;;15.40;48.60;;;;;;5022608;28;20382;-54
2023/04/18 11:37:45;;;;;;;12.40;6.25;;;15.40;48.60;;;;;;5021822;28;20068;-53
2023/04/18 11:40:13;;;;;;;8.18;5.32;;;15.40;48.60;;;;;;5022928;28;20494;-53
2023/04/18 11:42:41;;;;;;;7.95;5.60;;;15.50;48.60;;;;;;5022709;28;20061;-55
2023/04/18 11:45:12;;;;;;;9.68;6.10;;;15.50;48.60;;;;;;5022781;28;20049;-51
2023/04/18 11:47:42;;;;;;;7.82;5.63;;;15.60;48.70;;;;;;5019829;28;20065;-50
2023/04/18 11:50:11;;;;;;;9.25;6.10;;;15.60;48.60;;;;;;5021564;28;20548;-49
2023/04/18 11:52:41;;;;;;;7.57;5.35;;;15.60;48.40;;;;;;5020703;28;20417;-50
2023/04/18 11:55:13;;;;;;;7.25;5.18;;;15.70;48.50;;;;;;5022652;28;20053;-52
2023/04/18 11:57:41;;;;;;;7.72;5.07;;;15.70;48.20;;;;;;5022638;28;20057;-50
2023/04/18 12:00:12;;;;;;;7.03;5.03;;;15.80;48.30;;;;;;5019742;28;20050;-51
2023/04/18 12:02:42;;;;;;;7.30;5.10;;;15.80;48.30;;;;;;5021698;28;20057;-53
2023/04/18 12:05:10;;;;;;;6.80;5.00;;;15.90;48.30;;;;;;5020175;28;20049;-50
2023/04/18 12:07:39;;;;;;;7.13;4.50;;;15.90;48.30;;;;;;5019143;28;20123;-52
2023/04/18 12:10:08;;;;;;;6.97;4.72;;;15.90;48.30;;;;;;5020249;28;20423;-51
2023/04/18 12:12:36;;;;;;;11.02;5.50;;;16.00;48.30;;;;;;5022412;28;20477;-49
2023/04/18 12:15:07;;;;;;;6.68;5.18;;;16.00;48.10;;;;;;5020336;28;20425;-54
2023/04/18 12:17:36;;;;;;;7.22;5.05;;;16.00;48.00;;;;;;5022655;28;20057;-48
2023/04/18 12:20:09;;;;;;;10.13;4.95;;;16.10;48.00;;;;;;5021560;28;20049;-50
2023/04/18 12:22:38;;;;;;;6.43;4.57;;;16.10;47.90;;;;;;5020401;28;20136;-56
2023/04/18 12:25:18;;;;;;;6.90;4.93;;;16.10;47.90;;;;;;5022958;28;20500;-48
2023/04/18 12:27:50;;;;;;;7.40;4.72;;;16.10;47.90;;;;;;5022314;28;20064;-56
2023/04/18 12:30:20;;;;;;;6.90;5.25;;;16.10;47.60;;;;;;5021627;28;20500;-50
2023/04/18 12:32:52;;;;;;;6.68;4.57;;;16.10;47.60;;;;;;5019731;28;20057;-50
2023/04/18 12:35:21;;;;;;;10.40;5.00;;;16.20;47.70;;;;;;5021263;28;20057;-51
2023/04/18 12:37:50;;;;;;;6.40;4.82;;;16.20;48.00;;;;;;5021329;28;20061;-49
2023/04/18 12:40:18;;;;;;;11.40;5.80;;;16.20;48.10;;;;;;5021539;28;20072;-56
2023/04/18 12:42:47;;;;;;;7.22;4.88;;;16.20;48.00;;;;;;5020741;28;20053;-52
2023/04/18 12:45:15;;;;;;;7.35;5.00;;;16.30;48.00;;;;;;5021828;28;20053;-54
2023/04/18 12:47:44;;;;;;;9.25;6.18;;;16.30;47.90;;;;;;5020827;28;20060;-55